Time;durP1;ratioP1;P1;durP2;ratioP2;P2;SDS_P1;SDS_P2;PMS_P1;PMS_P2;Temp;Humidity;BMP_temperature;BMP_pressure;BME280_temperature;BME280_humidity;BME280_pressure;Samples;Min_cycle;Max_cycle;Signal;HPM_P1;HPM_P2
2023/08/09 00:00:31;;;;;;;3.10;1.48;;;16.90;99.90;;;17.18;100.00;100626.25;5200776;28;20053;-49
2023/08/09 00:03:05;;;;;;;3.53;1.52;;;16.80;99.90;;;17.16;100.00;100625.38;5186352;28;20141;-52
2023/08/09 00:05:37;;;;;;;1.25;1.00;;;16.90;99.90;;;17.18;100.00;100628.88;5203770;28;20448;-51
2023/08/09 00:08:09;;;;;;;1.05;0.95;;;16.90;99.90;;;17.18;100.00;100626.25;5195568;28;20134;-50
2023/08/09 00:10:42;;;;;;;2.03;1.40;;;16.90;99.90;;;17.18;100.00;100629.75;5193990;28;20045;-50
2023/08/09 00:13:15;;;;;;;1.50;1.17;;;16.90;99.90;;;17.20;100.00;100627.13;5201324;28;20049;-50
2023/08/09 00:15:48;;;;;;;3.28;1.50;;;16.90;99.90;;;17.18;100.00;100634.16;5190020;28;20084;-49
2023/08/09 00:18:20;;;;;;;3.70;1.40;;;16.90;99.90;;;17.17;100.00;100629.75;5199596;28;20041;-50
2023/08/09 00:20:53;;;;;;;2.88;1.60;;;16.80;99.90;;;17.18;100.00;100628.88;5201731;28;20402;-51
2023/08/09 00:23:25;;;;;;;2.60;1.42;;;16.90;99.90;;;17.19;100.00;100630.63;5193584;28;20037;-53
2023/08/09 00:26:00;;;;;;;1.83;1.25;;;16.80;99.90;;;17.19;100.00;100625.38;5194036;28;20044;-51
2023/08/09 00:28:34;;;;;;;1.70;1.10;;;16.90;99.90;;;17.20;100.00;100620.09;5201645;28;20388;-49
2023/08/09 00:31:06;;;;;;;1.20;1.10;;;16.90;99.90;;;17.21;100.00;100621.84;5193648;28;20053;-49
2023/08/09 00:33:39;;;;;;;2.95;1.20;;;16.90;99.90;;;17.21;100.00;100626.25;5189773;28;20411;-51
2023/08/09 00:36:11;;;;;;;1.58;1.13;;;16.90;99.90;;;17.20;100.00;100606.06;5189824;28;20050;-53
2023/08/09 00:38:44;;;;;;;2.15;1.20;;;16.90;99.90;;;17.19;100.00;100613.06;5189205;28;20061;-51
2023/08/09 00:41:19;;;;;;;1.50;1.23;;;16.90;99.90;;;17.21;100.00;100613.06;5188990;28;20091;-51
2023/08/09 00:43:54;;;;;;;1.33;1.13;;;16.90;99.90;;;17.21;100.00;100619.22;5201287;28;20053;-52
2023/08/09 00:46:26;;;;;;;2.33;1.35;;;16.90;99.90;;;17.23;100.00;100614.00;5198313;28;20060;-52
2023/08/09 00:48:58;;;;;;;1.83;1.15;;;16.90;99.90;;;17.23;100.00;100617.50;5186476;28;20108;-50
2023/08/09 00:51:34;;;;;;;1.63;1.20;;;16.90;99.90;;;17.24;100.00;100613.97;5199874;28;20037;-51
2023/08/09 00:54:07;;;;;;;1.48;1.25;;;16.90;99.90;;;17.24;100.00;100618.38;5186165;28;20048;-52
2023/08/09 00:56:40;;;;;;;1.35;1.23;;;16.90;99.90;;;17.25;100.00;100620.13;5192839;28;20067;-51
2023/08/09 00:59:17;;;;;;;2.95;1.30;;;17.00;99.90;;;17.27;100.00;100615.75;5184713;28;20053;-49
2023/08/09 01:01:50;;;;;;;2.08;1.30;;;17.00;99.90;;;17.25;100.00;100620.13;5184894;28;20568;-49
2023/08/09 01:04:22;;;;;;;1.92;1.20;;;17.00;99.90;;;17.25;100.00;100617.50;5200724;28;20041;-51
2023/08/09 01:07:00;;;;;;;1.60;1.20;;;17.00;99.90;;;17.25;100.00;100620.13;5192504;28;20056;-52
2023/08/09 01:09:39;;;;;;;1.80;1.33;;;17.00;99.90;;;17.24;100.00;100613.97;5193069;28;20118;-51
2023/08/09 01:12:14;;;;;;;1.88;1.23;;;16.90;99.90;;;17.21;100.00;100619.22;5185115;28;20045;-51
2023/08/09 01:14:54;;;;;;;3.00;1.48;;;16.90;99.90;;;17.22;100.00;100609.59;5192904;28;20042;-50
2023/08/09 01:17:29;;;;;;;1.30;1.20;;;16.90;99.90;;;17.19;100.00;100620.97;5202120;28;20052;-49
2023/08/09 01:20:04;;;;;;;2.00;1.35;;;16.90;99.90;;;17.19;100.00;100620.97;5187439;28;20069;-51
2023/08/09 01:22:39;;;;;;;1.60;1.30;;;16.90;99.90;;;17.21;100.00;100626.25;5183734;28;20049;-49
2023/08/09 01:25:14;;;;;;;2.35;1.25;;;16.90;99.90;;;17.19;100.00;100625.38;5186094;28;20041;-51
2023/08/09 01:27:46;;;;;;;1.67;1.40;;;16.90;99.90;;;17.19;100.00;100614.84;5197929;28;20112;-51
2023/08/09 01:30:19;;;;;;;3.60;1.30;;;16.90;99.90;;;17.19;100.00;100620.09;5200055;28;20072;-48
2023/08/09 01:32:52;;;;;;;2.13;1.23;;;16.90;99.90;;;17.19;100.00;100626.25;5195732;28;20053;-50
2023/08/09 01:35:28;;;;;;;1.58;1.30;;;16.90;99.90;;;17.20;100.00;100612.19;5192709;28;20080;-51
2023/08/09 01:38:07;;;;;;;1.35;1.25;;;16.90;99.90;;;17.20;100.00;100622.72;5192687;28;20103;-51
2023/08/09 01:40:42;;;;;;;1.52;1.30;;;16.90;99.90;;;17.21;100.00;100613.06;5189665;28;20077;-50
2023/08/09 01:43:15;;;;;;;1.83;1.42;;;16.90;99.90;;;17.21;100.00;100619.22;5196519;28;20057;-51
2023/08/09 01:45:47;;;;;;;1.25;1.15;;;16.90;99.90;;;17.22;100.00;100626.28;5192179;28;20065;-48
2023/08/09 01:48:20;;;;;;;1.88;1.27;;;16.90;99.90;;;17.19;100.00;100620.97;5197403;28;20407;-51
2023/08/09 01:50:52;;;;;;;2.08;1.40;;;16.90;99.90;;;17.20;100.00;100621.84;5200376;28;20045;-50
2023/08/09 01:53:28;;;;;;;1.48;1.38;;;16.90;99.90;;;17.21;100.00;100618.34;5200402;28;20071;-51
2023/08/09 01:56:02;;;;;;;2.53;1.45;;;16.90;99.90;;;17.21;100.00;100623.63;5194730;28;20109;-53
2023/08/09 01:58:34;;;;;;;3.03;1.60;;;16.90;99.90;;;17.20;100.00;100620.09;5190879;28;20045;-50
2023/08/09 02:01:08;;;;;;;2.08;1.20;;;16.90;99.90;;;17.22;100.00;100620.13;5192658;28;20469;-50
2023/08/09 02:03:41;;;;;;;2.28;1.40;;;16.90;99.90;;;17.22;100.00;100614.88;5200843;28;20486;-51
2023/08/09 02:06:13;;;;;;;2.40;1.83;;;16.90;99.90;;;17.21;100.00;100611.31;5192316;28;20069;-52
2023/08/09 02:08:46;;;;;;;2.17;1.60;;;16.90;99.90;;;17.20;100.00;100611.31;5200231;28;20503;-51
2023/08/09 02:11:20;;;;;;;4.30;1.30;;;16.90;99.90;;;17.20;100.00;100612.19;5192211;28;20557;-50
2023/08/09 02:13:52;;;;;;;3.30;1.70;;;16.90;99.90;;;17.20;100.00;100611.31;5200344;28;20461;-50
2023/08/09 02:16:25;;;;;;;2.70;1.65;;;16.90;99.90;;;17.19;100.00;100609.56;5192098;28;20069;-50
2023/08/09 02:18:58;;;;;;;2.10;1.65;;;16.90;99.90;;;17.19;100.00;100606.94;5192055;28;20132;-51
2023/08/09 02:21:30;;;;;;;2.35;1.70;;;16.90;99.90;;;17.17;100.00;100622.72;5198339;28;20096;-51
2023/08/09 02:24:02;;;;;;;3.13;1.80;;;16.90;99.90;;;17.14;100.00;100624.47;5180864;28;20057;-48
2023/08/09 02:26:38;;;;;;;3.42;2.30;;;16.80;99.90;;;17.13;100.00;100620.06;5202069;28;20045;-49
2023/08/09 02:29:11;;;;;;;3.45;1.90;;;16.80;99.90;;;17.12;100.00;100632.34;5195734;28;20136;-52
2023/08/09 02:31:43;;;;;;;4.75;1.88;;;16.80;99.90;;;17.08;100.00;100636.75;5187906;28;20453;-50
2023/08/09 02:34:19;;;;;;;5.00;2.33;;;16.80;99.90;;;17.04;100.00;100642.84;5188438;28;20052;-51
2023/08/09 02:36:51;;;;;;;3.40;1.80;;;16.80;99.90;;;16.95;100.00;100653.34;5196166;28;20037;-50
2023/08/09 02:39:23;;;;;;;2.47;1.58;;;16.70;99.90;;;16.89;100.00;100647.13;5195652;28;20088;-49
2023/08/09 02:41:57;;;;;;;1.80;1.35;;;16.60;99.90;;;16.80;100.00;100654.09;5203764;28;20045;-49
2023/08/09 02:44:32;;;;;;;2.45;1.50;;;16.60;99.90;;;16.72;100.00;100653.16;5203861;28;20154;-48
2023/08/09 02:47:05;;;;;;;1.80;1.63;;;16.60;99.90;;;16.58;100.00;100652.16;5197600;28;20066;-51
2023/08/09 02:49:43;;;;;;;2.08;1.35;;;16.40;99.90;;;16.49;100.00;100657.31;5202102;28;20499;-51
2023/08/09 02:52:16;;;;;;;1.38;1.17;;;16.40;99.90;;;16.43;100.00;100660.81;5196432;28;20049;-48
2023/08/09 02:54:48;;;;;;;2.08;1.45;;;16.30;99.90;;;16.40;100.00;100658.13;5203250;28;20474;-49
2023/08/09 02:57:22;;;;;;;3.00;1.63;;;16.20;99.90;;;16.39;100.00;100653.75;5195798;28;20092;-48
2023/08/09 02:59:55;;;;;;;2.03;1.63;;;16.20;99.90;;;16.39;100.00;100659.00;5195479;28;20099;-51
2023/08/09 03:02:27;;;;;;;1.75;1.50;;;16.20;99.90;;;16.38;100.00;100661.63;5195253;28;20054;-52
2023/08/09 03:05:01;;;;;;;2.35;1.55;;;16.20;99.90;;;16.37;100.00;100663.38;5195601;28;20054;-51
2023/08/09 03:07:34;;;;;;;2.22;1.45;;;16.20;99.90;;;16.36;100.00;100680.00;5194989;28;20041;-51
2023/08/09 03:10:10;;;;;;;1.83;1.33;;;16.10;99.90;;;16.36;100.00;100681.75;5202870;28;20057;-49
2023/08/09 03:12:44;;;;;;;2.25;1.58;;;16.10;99.90;;;16.34;100.00;100683.50;5195084;28;20100;-48
2023/08/09 03:15:17;;;;;;;2.05;1.50;;;16.10;99.90;;;16.31;100.00;100683.47;5194932;28;20045;-49
2023/08/09 03:17:50;;;;;;;3.88;1.67;;;16.10;99.90;;;16.30;100.00;100682.59;5194803;28;20033;-51
2023/08/09 03:20:27;;;;;;;2.58;1.52;;;16.10;99.90;;;16.30;100.00;100687.88;5203209;28;20144;-51
2023/08/09 03:23:00;;;;;;;2.53;1.83;;;16.10;99.90;;;16.30;100.00;100687.88;5191124;28;20038;-52
2023/08/09 03:25:34;;;;;;;2.85;1.48;;;16.10;99.90;;;16.30;100.00;100693.13;5192438;28;20053;-49
2023/08/09 03:28:08;;;;;;;2.63;1.83;;;16.10;99.90;;;16.28;100.00;100695.72;5202708;28;20045;-52
2023/08/09 03:30:40;;;;;;;1.85;1.63;;;16.00;99.90;;;16.30;100.00;100703.66;5192266;28;20136;-52
2023/08/09 03:33:13;;;;;;;2.45;1.63;;;16.10;99.90;;;16.29;100.00;100702.72;5197315;28;20041;-51
2023/08/09 03:35:50;;;;;;;4.80;2.00;;;16.00;99.90;;;16.30;100.00;100701.00;5186034;28;20049;-49
2023/08/09 03:38:22;;;;;;;2.55;1.52;;;16.10;99.90;;;16.26;100.00;100707.09;5203074;28;20523;-51
2023/08/09 03:40:55;;;;;;;2.58;1.75;;;16.00;99.90;;;16.22;100.00;100715.81;5194755;28;20060;-52
2023/08/09 03:43:30;;;;;;;2.30;1.63;;;16.00;99.90;;;16.22;100.00;100715.81;5202459;28;20045;-51
2023/08/09 03:46:04;;;;;;;2.83;1.65;;;16.00;99.90;;;16.22;100.00;100721.06;5189265;28;20049;-51
2023/08/09 03:48:37;;;;;;;2.85;2.20;;;16.00;99.90;;;16.22;100.00;100718.44;5183626;28;20048;-52
2023/08/09 03:51:09;;;;;;;2.90;1.80;;;16.00;99.90;;;16.21;100.00;100725.44;5188464;28;20423;-50
2023/08/09 03:53:42;;;;;;;3.80;1.73;;;16.00;99.90;;;16.22;100.00;100721.06;5198276;28;20091;-51
2023/08/09 03:56:14;;;;;;;2.50;1.67;;;16.00;99.90;;;16.21;100.00;100721.94;5182263;28;20050;-51
2023/08/09 03:58:49;;;;;;;2.45;1.58;;;16.00;99.90;;;16.20;100.00;100722.81;5192544;28;20072;-51
2023/08/09 04:01:21;;;;;;;2.97;1.70;;;16.00;99.90;;;16.21;100.00;100720.19;5201948;28;20537;-52
2023/08/09 04:03:58;;;;;;;3.25;1.60;;;16.00;99.90;;;16.21;100.00;100724.56;5182387;28;20050;-52
2023/08/09 04:06:30;;;;;;;2.58;1.73;;;16.00;99.90;;;16.21;100.00;100724.56;5190852;28;20045;-51
2023/08/09 04:09:03;;;;;;;2.47;1.60;;;16.00;99.90;;;16.22;100.00;100723.69;5201941;28;20042;-50
2023/08/09 04:11:38;;;;;;;2.92;1.65;;;16.00;99.90;;;16.21;100.00;100730.72;5193595;28;20517;-52
2023/08/09 04:14:12;;;;;;;3.05;1.60;;;16.00;99.90;;;16.21;100.00;100735.09;5202152;28;20065;-52
2023/08/09 04:16:45;;;;;;;2.53;1.70;;;16.00;99.90;;;16.20;100.00;100734.22;5193883;28;20073;-51
2023/08/09 04:19:18;;;;;;;2.03;1.25;;;16.00;99.90;;;16.20;100.00;100733.31;5201949;28;20456;-51
2023/08/09 04:21:54;;;;;;;2.53;1.42;;;16.00;99.90;;;16.21;100.00;100735.97;5201847;28;20073;-53
2023/08/09 04:24:27;;;;;;;1.67;1.20;;;15.90;99.90;;;16.19;100.00;100736.84;5194007;28;20038;-52
2023/08/09 04:27:00;;;;;;;2.45;1.63;;;15.90;99.90;;;16.20;100.00;100744.72;5193920;28;20049;-50
2023/08/09 04:29:34;;;;;;;2.88;1.27;;;15.90;99.90;;;16.18;100.00;100756.09;5201497;28;20038;-51
2023/08/09 04:32:07;;;;;;;2.38;1.40;;;15.90;99.90;;;16.19;100.00;100768.38;5193600;28;20045;-52
2023/08/09 04:34:40;;;;;;;1.85;1.40;;;15.90;99.90;;;16.19;100.00;100781.53;5185535;28;20542;-53
2023/08/09 04:37:12;;;;;;;2.22;1.75;;;15.90;99.90;;;16.18;100.00;100778.03;5187693;28;20108;-51
2023/08/09 04:39:44;;;;;;;2.47;1.23;;;15.90;99.90;;;16.17;100.00;100785.88;5183688;28;20034;-51
2023/08/09 04:42:17;;;;;;;1.73;1.40;;;15.90;99.90;;;16.14;100.00;100780.59;5201300;28;20045;-52
2023/08/09 04:44:50;;;;;;;1.85;1.30;;;15.90;99.90;;;16.14;100.00;100772.69;5193308;28;20073;-51
2023/08/09 04:47:23;;;;;;;1.92;1.20;;;15.90;99.90;;;16.15;100.00;100774.47;5201109;28;20080;-52
2023/08/09 04:49:56;;;;;;;1.67;1.40;;;15.90;99.90;;;16.16;100.00;100770.97;5192933;28;20041;-53
2023/08/09 04:52:28;;;;;;;2.03;1.38;;;15.90;99.90;;;16.17;100.00;100775.34;5202639;28;20128;-52
2023/08/09 04:55:00;;;;;;;1.67;1.15;;;15.90;99.90;;;16.19;100.00;100773.66;5202635;28;20419;-52
2023/08/09 04:57:33;;;;;;;3.28;1.60;;;15.90;99.90;;;16.21;100.00;100785.06;5192937;28;20042;-50
2023/08/09 05:00:10;;;;;;;2.95;1.45;;;16.00;99.90;;;16.21;100.00;100787.69;5196174;28;20392;-51
2023/08/09 05:02:42;;;;;;;1.83;1.25;;;15.90;99.90;;;16.24;100.00;100777.22;5190425;28;20050;-52
2023/08/09 05:05:15;;;;;;;2.17;1.35;;;16.00;99.90;;;16.26;100.00;100780.75;5193107;28;20123;-51
2023/08/09 05:07:48;;;;;;;2.35;1.50;;;16.00;99.90;;;16.31;100.00;100799.22;5190755;28;20238;-53
2023/08/09 05:10:20;;;;;;;3.00;1.60;;;16.00;99.90;;;16.36;100.00;100802.75;5188799;28;20515;-51
2023/08/09 05:12:53;;;;;;;3.42;1.65;;;16.10;99.90;;;16.41;100.00;100804.56;5191956;28;20444;-53
2023/08/09 05:15:26;;;;;;;1.77;1.17;;;16.10;99.90;;;16.45;100.00;100792.34;5193616;28;20073;-51
2023/08/09 05:17:59;;;;;;;2.40;1.30;;;16.20;99.90;;;16.47;100.00;100804.66;5184350;28;20053;-51
2023/08/09 05:20:31;;;;;;;1.98;1.48;;;16.20;99.90;;;16.52;100.00;100805.59;5192669;28;20063;-52
2023/08/09 05:23:04;;;;;;;2.42;1.42;;;16.20;99.90;;;16.58;100.00;100804.78;5185103;28;20056;-51
2023/08/09 05:25:36;;;;;;;1.95;1.38;;;16.30;99.90;;;16.62;100.00;100810.94;5192747;28;20100;-52
2023/08/09 05:28:09;;;;;;;3.10;1.35;;;16.30;99.90;;;16.73;100.00;100822.50;5192477;28;20077;-52
2023/08/09 05:30:43;;;;;;;2.00;1.45;;;16.40;99.90;;;16.83;100.00;100819.09;5199774;28;20033;-52
2023/08/09 05:33:15;;;;;;;3.03;1.40;;;16.50;99.90;;;16.93;100.00;100822.69;5186446;28;20049;-52
2023/08/09 05:35:47;;;;;;;1.95;1.30;;;16.60;99.90;;;16.97;100.00;100835.91;5198723;28;20038;-52
2023/08/09 05:38:20;;;;;;;2.13;1.35;;;16.60;99.90;;;17.00;100.00;100833.28;5187088;28;20048;-52
2023/08/09 05:40:52;;;;;;;2.30;1.48;;;16.60;99.90;;;16.95;100.00;100832.38;5200372;28;20038;-51
2023/08/09 05:43:24;;;;;;;2.10;1.48;;;16.60;99.90;;;16.98;100.00;100837.66;5186342;28;20038;-50
2023/08/09 05:46:01;;;;;;;1.95;1.50;;;16.70;99.90;;;17.00;100.00;100828.03;5183891;28;20095;-53
2023/08/09 05:48:34;;;;;;;2.88;1.63;;;16.70;99.90;;;17.05;100.00;100828.94;5192464;28;20054;-52
2023/08/09 05:51:06;;;;;;;3.03;1.50;;;16.70;99.90;;;17.09;100.00;100840.41;5192295;28;20061;-50
2023/08/09 05:53:38;;;;;;;1.98;1.33;;;16.80;99.90;;;17.10;100.00;100842.16;5192083;28;20056;-52
2023/08/09 05:56:11;;;;;;;2.60;1.80;;;16.80;99.90;;;17.13;100.00;100851.84;5193033;28;20042;-51
2023/08/09 05:58:43;;;;;;;1.90;1.23;;;16.80;99.90;;;17.21;100.00;100858.94;5199448;28;20048;-50
2023/08/09 06:01:17;;;;;;;2.08;1.58;;;16.90;99.90;;;17.26;100.00;100865.13;5184499;28;20077;-51
2023/08/09 06:03:52;;;;;;;1.77;1.48;;;16.90;99.90;;;17.28;100.00;100867.78;5192563;28;20479;-52
2023/08/09 06:06:25;;;;;;;2.17;1.45;;;17.00;99.90;;;17.29;100.00;100874.81;5199647;28;20073;-51
2023/08/09 06:08:57;;;;;;;2.22;1.42;;;17.00;99.90;;;17.29;100.00;100883.63;5193227;28;20046;-51
2023/08/09 06:11:30;;;;;;;2.60;1.77;;;16.90;99.90;;;17.31;100.00;100878.34;5204419;28;20038;-52
2023/08/09 06:14:03;;;;;;;3.30;2.10;;;17.00;99.90;;;17.37;100.00;100878.41;5196320;28;20049;-51
2023/08/09 06:16:37;;;;;;;3.17;1.92;;;17.00;99.90;;;17.47;100.00;100874.06;5204965;28;20053;-50
2023/08/09 06:19:09;;;;;;;2.45;1.52;;;17.10;99.90;;;17.54;100.00;100882.06;5196860;28;20099;-49
2023/08/09 06:21:44;;;;;;;3.53;1.73;;;17.10;99.90;;;17.71;100.00;100889.19;5204336;28;20083;-49
2023/08/09 06:24:20;;;;;;;2.13;1.67;;;17.30;99.90;;;18.06;100.00;100887.72;5203685;28;20053;-51
2023/08/09 06:26:52;;;;;;;2.55;1.50;;;17.60;99.90;;;18.36;100.00;100880.81;5203391;28;20037;-51
2023/08/09 06:29:24;;;;;;;2.45;1.73;;;17.80;99.90;;;18.74;100.00;100894.19;5203564;28;20053;-52
2023/08/09 06:32:01;;;;;;;1.80;1.23;;;18.20;99.90;;;18.97;100.00;100905.72;5203479;28;20629;-52
2023/08/09 06:34:34;;;;;;;1.85;1.40;;;18.40;99.90;;;19.08;100.00;100915.41;5196193;28;20053;-51
2023/08/09 06:37:06;;;;;;;2.08;1.50;;;18.50;99.90;;;19.10;100.00;100911.88;5194956;28;20053;-50
2023/08/09 06:39:39;;;;;;;1.73;1.15;;;18.60;99.90;;;19.10;100.00;100917.16;5192437;28;20077;-51
2023/08/09 06:42:14;;;;;;;2.35;1.42;;;18.60;99.90;;;19.03;100.00;100922.44;5200511;28;20038;-50
2023/08/09 06:44:49;;;;;;;2.30;1.23;;;18.60;99.90;;;18.81;100.00;100918.88;5196890;28;20503;-50
2023/08/09 06:47:23;;;;;;;2.67;1.40;;;18.50;99.90;;;18.63;100.00;100917.88;5197756;28;20513;-51
2023/08/09 06:50:00;;;;;;;3.42;1.38;;;18.30;99.90;;;18.51;100.00;100928.38;5196403;28;20112;-52
2023/08/09 06:52:33;;;;;;;2.08;1.48;;;18.20;99.90;;;18.39;100.00;100928.34;5193921;28;20049;-50
2023/08/09 06:55:07;;;;;;;1.98;1.33;;;18.10;99.90;;;18.25;100.00;100932.66;5203532;28;20409;-51
2023/08/09 06:57:39;;;;;;;1.55;1.20;;;17.90;99.90;;;18.15;100.00;100935.25;5195514;28;20049;-51
2023/08/09 07:00:16;;;;;;;2.22;1.60;;;17.80;99.90;;;18.13;100.00;100934.38;5195768;28;20127;-51
2023/08/09 07:02:50;;;;;;;1.65;1.33;;;17.80;99.90;;;18.12;100.00;100940.50;5185740;28;20112;-50
2023/08/09 07:05:24;;;;;;;3.58;1.58;;;17.80;99.90;;;18.16;100.00;100938.75;5195381;28;20053;-49
2023/08/09 07:07:59;;;;;;;2.47;1.50;;;17.80;99.90;;;18.30;100.00;100949.41;5202834;28;20447;-47
2023/08/09 07:10:33;;;;;;;2.42;1.70;;;17.90;99.90;;;18.58;100.00;100942.50;5201794;28;20061;-46
2023/08/09 07:13:06;;;;;;;2.08;1.60;;;18.10;99.90;;;19.03;100.00;100946.22;5202260;28;20068;-54
2023/08/09 07:15:38;;;;;;;2.80;1.55;;;18.40;99.90;;;19.40;100.00;100944.53;5195200;28;20046;-52
2023/08/09 07:18:15;;;;;;;2.55;1.33;;;18.70;99.90;;;19.51;100.00;100956.00;5202252;28;20047;-51
2023/08/09 07:20:48;;;;;;;1.88;1.42;;;18.90;99.90;;;19.46;100.00;100952.47;5200770;28;20053;-51
2023/08/09 07:23:20;;;;;;;1.90;1.27;;;18.90;99.90;;;19.31;100.00;100957.75;5189356;28;20136;-51
2023/08/09 07:25:53;;;;;;;2.28;1.40;;;18.80;99.90;;;19.14;100.00;100962.97;5200592;28;20053;-52
2023/08/09 07:28:26;;;;;;;1.40;1.20;;;18.80;99.90;;;18.95;100.00;100962.03;5196322;28;20092;-50
2023/08/09 07:30:58;;;;;;;1.65;1.15;;;18.60;99.90;;;18.80;100.00;100972.56;5192901;28;20507;-50
2023/08/09 07:33:32;;;;;;;2.00;1.33;;;18.40;99.90;;;18.70;100.00;100983.06;5203244;28;20064;-51
2023/08/09 07:36:05;;;;;;;2.30;1.33;;;18.30;99.90;;;18.66;100.00;100976.03;5202892;28;20077;-49
2023/08/09 07:38:38;;;;;;;2.45;1.38;;;18.30;99.90;;;18.63;100.00;100972.44;5202585;28;20046;-51
2023/08/09 07:41:10;;;;;;;2.50;1.20;;;18.30;99.90;;;18.64;100.00;100977.72;5204074;28;20119;-50
2023/08/09 07:43:43;;;;;;;2.90;1.50;;;18.20;99.90;;;18.83;100.00;100977.84;5202681;28;20380;-51
2023/08/09 07:46:15;;;;;;;1.90;1.38;;;18.30;99.90;;;19.33;100.00;100979.75;5194584;28;20046;-51
2023/08/09 07:48:51;;;;;;;1.50;1.20;;;18.70;99.90;;;19.83;100.00;100978.97;5186110;28;20042;-51
2023/08/09 07:51:24;;;;;;;1.25;1.02;;;19.10;99.90;;;20.55;100.00;100982.41;5189000;28;20598;-50
2023/08/09 07:53:56;;;;;;;2.60;1.27;;;19.60;99.90;;;21.34;100.00;100994.44;5182288;28;20048;-51
2023/08/09 07:56:29;;;;;;;1.70;1.30;;;20.30;99.90;;;21.97;100.00;100991.28;5182160;28;20050;-51
2023/08/09 07:59:01;;;;;;;1.20;1.10;;;20.90;99.90;;;22.35;100.00;101005.09;5200509;28;20045;-51
2023/08/09 08:01:34;;;;;;;2.30;1.30;;;21.30;99.90;;;22.44;100.00;100999.72;5195685;28;20073;-51
2023/08/09 08:04:11;;;;;;;1.38;1.05;;;21.50;99.90;;;22.62;99.46;101003.03;5201604;28;20041;-51
2023/08/09 08:06:48;;;;;;;2.67;1.00;;;21.70;99.90;;;22.98;98.75;101013.28;5193914;28;20111;-51
2023/08/09 08:09:21;;;;;;;2.38;1.20;;;22.00;99.90;;;23.26;98.68;101011.13;5203359;28;20124;-52
2023/08/09 08:11:53;;;;;;;2.17;1.30;;;22.20;99.90;;;23.29;98.56;101007.56;5194031;28;20048;-51
2023/08/09 08:14:29;;;;;;;1.77;1.30;;;22.30;99.90;;;23.15;98.32;101009.53;5196613;28;20046;-51
2023/08/09 08:17:01;;;;;;;2.13;1.40;;;22.20;99.90;;;23.00;98.22;101016.78;5192150;28;20503;-50
2023/08/09 08:19:35;;;;;;;1.20;1.10;;;22.10;99.90;;;22.86;98.00;101025.81;5201353;28;20499;-51
2023/08/09 08:22:11;;;;;;;1.55;1.42;;;22.00;99.90;;;22.86;97.86;101029.38;5198517;28;20041;-51
2023/08/09 08:24:43;;;;;;;2.63;1.30;;;21.80;99.90;;;23.33;98.54;101013.69;5193459;28;20095;-51
2023/08/09 08:27:16;;;;;;;2.33;1.17;;;22.00;99.90;;;24.12;95.23;101016.91;5197197;28;20045;-52
2023/08/09 08:29:49;;;;;;;1.02;0.90;;;22.30;99.90;;;24.87;89.56;101013.72;5187679;28;20352;-52
2023/08/09 08:32:22;;;;;;;1.48;1.10;;;22.80;99.90;;;25.47;85.28;101026.66;5192806;28;20132;-52
2023/08/09 08:34:56;;;;;;;2.33;1.10;;;23.00;99.90;;;26.00;83.59;101021.84;5191612;28;20048;-52
2023/08/09 08:37:29;;;;;;;2.35;0.95;;;23.30;99.90;;;26.95;81.33;101019.31;5195242;28;20045;-53
2023/08/09 08:40:06;;;;;;;2.03;0.93;;;23.90;99.60;;;27.65;76.28;101026.97;5199313;28;20044;-53
2023/08/09 08:42:41;;;;;;;0.93;0.80;;;24.40;97.60;;;28.45;74.45;101027.91;5189000;28;20045;-53
2023/08/09 08:45:15;;;;;;;0.80;0.80;;;24.90;96.70;;;29.40;70.51;101034.16;5199817;28;20470;-53
2023/08/09 08:47:49;;;;;;;3.38;0.90;;;25.80;94.60;;;29.99;68.69;101027.31;5198028;28;20049;-53
2023/08/09 08:50:26;;;;;;;0.50;0.50;;;26.40;92.90;;;30.34;67.13;101041.09;5200208;28;20041;-53
2023/08/09 08:52:59;;;;;;;1.70;0.90;;;26.90;91.00;;;30.77;65.93;101038.25;5199968;28;20131;-53
2023/08/09 08:55:32;;;;;;;0.70;0.70;;;27.40;89.90;;;30.82;65.11;101035.38;5187470;28;20042;-53
2023/08/09 08:58:05;;;;;;;0.90;0.80;;;27.60;86.70;;;30.82;65.27;101032.69;5199443;28;20053;-52
2023/08/09 09:00:38;;;;;;;1.00;0.80;;;27.70;84.70;;;30.95;64.07;101036.56;5201193;28;20630;-54
2023/08/09 09:03:11;;;;;;;1.02;0.75;;;27.80;82.10;;;31.49;61.12;101034.03;5184437;28;20522;-55
2023/08/09 09:05:44;;;;;;;1.15;0.75;;;28.20;79.00;;;31.85;61.37;101039.50;5187883;28;20045;-55
2023/08/09 09:08:21;;;;;;;1.25;1.02;;;28.40;78.20;;;32.56;60.91;101052.94;5200240;28;20061;-55
2023/08/09 09:10:54;;;;;;;1.20;0.80;;;28.90;78.00;;;32.69;60.00;101037.84;5192080;28;20034;-55
2023/08/09 09:13:28;;;;;;;2.10;0.80;;;29.20;76.10;;;32.51;60.36;101053.19;5192802;28;20081;-55
2023/08/09 09:16:01;;;;;;;1.23;0.70;;;29.20;75.40;;;32.05;60.73;101047.44;5196516;28;20034;-54
2023/08/09 09:18:41;;;;;;;1.00;0.77;;;29.00;74.50;;;31.42;61.74;101046.94;5200193;28;20045;-54
2023/08/09 09:21:16;;;;;;;;;;;28.70;74.90;;;30.88;62.55;101050.38;5199461;28;20136;-54
2023/08/09 09:23:48;;;;;;;1.75;0.93;;;28.40;74.60;;;30.48;62.18;101046.75;5199662;28;20052;-54
2023/08/09 09:26:25;;;;;;;1.35;0.80;;;28.10;73.70;;;30.02;63.30;101050.50;5187381;28;20508;-54
2023/08/09 09:28:57;;;;;;;1.15;0.82;;;27.90;74.20;;;29.34;65.17;101050.53;5196409;28;20067;-53
2023/08/09 09:31:39;;;;;;;1.48;0.80;;;27.50;75.40;;;28.67;64.85;101047.66;5194778;28;20045;-53
2023/08/09 09:34:12;;;;;;;1.15;0.90;;;27.10;74.50;;;27.89;65.56;101053.00;5194744;28;20339;-53
2023/08/09 09:36:50;;;;;;;1.27;0.90;;;26.60;74.30;;;27.31;66.87;101039.63;5187551;28;20414;-53
2023/08/09 09:39:22;;;;;;;1.50;1.08;;;26.20;75.00;;;26.98;68.41;101062.88;5200130;28;20124;-52
2023/08/09 09:41:55;;;;;;;2.05;1.00;;;25.90;76.10;;;26.79;68.59;101054.50;5200097;28;20037;-53
2023/08/09 09:44:27;;;;;;;1.30;0.90;;;25.70;76.30;;;26.67;69.42;101057.53;5199857;28;20160;-53
2023/08/09 09:47:02;;;;;;;1.50;1.20;;;25.60;77.10;;;26.61;71.18;101056.81;5195590;28;20405;-53
2023/08/09 09:49:35;;;;;;;2.08;1.00;;;25.50;78.60;;;26.57;72.18;101061.38;5199528;28;20049;-53
2023/08/09 09:52:10;;;;;;;2.05;1.13;;;25.50;79.90;;;26.48;73.81;101050.94;5189667;28;20414;-53
2023/08/09 09:54:46;;;;;;;1.75;1.10;;;25.50;81.00;;;26.36;75.54;101051.22;5194553;28;20052;-53
2023/08/09 09:57:18;;;;;;;1.20;1.02;;;25.40;82.70;;;26.34;76.12;101053.03;5199760;28;20041;-53
2023/08/09 09:59:51;;;;;;;1.35;1.25;;;25.40;83.50;;;26.18;75.60;101053.44;5199694;28;20068;-53
2023/08/09 10:02:34;;;;;;;2.60;1.63;;;25.30;83.20;;;26.00;75.35;101053.91;5199843;28;20133;-53
2023/08/09 10:05:10;;;;;;;6.43;3.25;;;25.20;83.10;;;25.73;75.75;101065.25;5199561;28;20049;-53
2023/08/09 10:07:45;;;;;;;8.30;3.63;;;24.90;83.20;;;25.39;75.70;101052.66;5199655;28;20096;-52
2023/08/09 10:10:19;;;;;;;6.88;2.83;;;24.70;83.00;;;25.34;76.22;101049.22;5191383;28;20081;-53
2023/08/09 10:12:54;;;;;;;3.65;2.20;;;24.60;83.50;;;25.53;75.85;101055.88;5192143;28;20034;-52
2023/08/09 10:15:32;;;;;;;4.82;2.03;;;24.60;83.80;;;25.74;74.43;101054.53;5192209;28;20049;-54
2023/08/09 10:18:10;;;;;;;2.40;1.50;;;24.80;83.20;;;25.93;72.56;101052.31;5197830;28;20107;-53
2023/08/09 10:20:47;;;;;;;6.20;3.08;;;24.90;81.40;;;25.90;70.60;101057.75;5194128;28;20037;-53
2023/08/09 10:23:28;;;;;;;3.45;1.80;;;24.90;79.40;;;25.85;69.76;101063.19;5191382;28;20045;-53
2023/08/09 10:26:00;;;;;;;3.50;1.52;;;24.90;78.60;;;25.79;68.98;101075.78;5191915;28;20068;-53
2023/08/09 10:28:49;;;;;;;2.22;1.40;;;24.90;77.40;;;25.80;68.70;101070.41;5194561;28;20069;-53
2023/08/09 10:31:53;;;;;;;2.63;1.70;;;24.90;77.30;;;25.89;68.24;101075.56;5192711;28;20096;-53
2023/08/09 10:34:35;;;;;;;2.80;1.38;;;24.90;76.90;;;25.91;69.00;101072.84;5101315;29;20043;-53